Axtell, Texas
Current Conditions -  °F | °C
As of 10:51 PM on Wednesday 26 Nov 2014 (Local Time) from KACT Reporting Station
Clear Clear  
Wind Chill: 42°   Ceiling: Unl
Heat Index: 46°   Visibility: 10mi
Dew Point: 37°   Wind: 8mph
Humidity: 71%   Direction: 340°NNW
Pressure: 30.37"   Gusts: NA
Location:  31.66°N, 96.97°W
Report Text: KACT 270451Z 34007KT 10SM CLR 08/03 A3037 RMK AO2 SLP282 T00780028
Loading
Personal Weather Stations






























Interactive Weather Map New forecast layout! Learn more

10-Day Weather Forecast

Advertisements
Track Severe Weather on mobile